sensor_id;sensor_type;location;lat;lon;timestamp;pressure;altitude;pressure_sealevel;temperature;humidity
15670;BME280;18524;45.190;5.732;2023-01-26T00:00:11;99698.09;;;5.15;73.57
15670;BME280;18524;45.190;5.732;2023-01-26T00:05:01;99703.03;;;5.19;72.63
15670;BME280;18524;45.190;5.732;2023-01-26T00:09:52;99696.31;;;5.15;73.06
15670;BME280;18524;45.190;5.732;2023-01-26T00:14:42;99693.25;;;5.07;73.75
15670;BME280;18524;45.190;5.732;2023-01-26T00:19:38;99680.97;;;4.93;74.99
15670;BME280;18524;45.190;5.732;2023-01-26T00:24:29;99671.22;;;4.80;75.12
15670;BME280;18524;45.190;5.732;2023-01-26T00:29:19;99653.97;;;4.96;74.63
15670;BME280;18524;45.190;5.732;2023-01-26T00:34:10;99654.59;;;5.01;74.78
15670;BME280;18524;45.190;5.732;2023-01-26T00:39:00;99650.16;;;5.03;74.72
15670;BME280;18524;45.190;5.732;2023-01-26T00:43:51;99644.41;;;5.14;74.60
15670;BME280;18524;45.190;5.732;2023-01-26T00:48:42;99636.38;;;5.01;74.88
15670;BME280;18524;45.190;5.732;2023-01-26T00:53:32;99639.59;;;4.89;75.81
15670;BME280;18524;45.190;5.732;2023-01-26T00:58:22;99629.28;;;4.87;75.27
15670;BME280;18524;45.190;5.732;2023-01-26T01:03:13;99630.59;;;4.96;75.26
15670;BME280;18524;45.190;5.732;2023-01-26T01:08:03;99625.91;;;5.02;75.15
15670;BME280;18524;45.190;5.732;2023-01-26T01:12:54;99624.53;;;5.13;74.78
15670;BME280;18524;45.190;5.732;2023-01-26T01:17:45;99614.84;;;4.99;74.06
15670;BME280;18524;45.190;5.732;2023-01-26T01:22:36;99612.38;;;4.79;74.38
15670;BME280;18524;45.190;5.732;2023-01-26T01:27:26;99603.69;;;4.97;75.01
15670;BME280;18524;45.190;5.732;2023-01-26T01:32:17;99589.50;;;5.20;74.76
15670;BME280;18524;45.190;5.732;2023-01-26T01:37:08;99595.41;;;5.23;72.24
15670;BME280;18524;45.190;5.732;2023-01-26T01:41:58;99587.63;;;4.89;73.49
15670;BME280;18524;45.190;5.732;2023-01-26T01:47:00;99583.19;;;4.91;72.91
15670;BME280;18524;45.190;5.732;2023-01-26T01:52:03;99581.28;;;4.94;72.39
15670;BME280;18524;45.190;5.732;2023-01-26T01:57:00;99581.13;;;4.80;74.03
15670;BME280;18524;45.190;5.732;2023-01-26T02:01:54;99563.09;;;4.94;73.21
15670;BME280;18524;45.190;5.732;2023-01-26T02:06:54;99566.69;;;4.75;73.77
15670;BME280;18524;45.190;5.732;2023-01-26T02:11:46;99552.00;;;4.91;75.23
15670;BME280;18524;45.190;5.732;2023-01-26T02:16:37;99548.03;;;5.01;76.01
15670;BME280;18524;45.190;5.732;2023-01-26T02:21:29;99543.34;;;5.08;75.30
15670;BME280;18524;45.190;5.732;2023-01-26T02:26:24;99541.34;;;5.13;74.32
15670;BME280;18524;45.190;5.732;2023-01-26T02:31:16;99534.03;;;5.03;75.21
15670;BME280;18524;45.190;5.732;2023-01-26T02:36:17;99536.41;;;4.74;77.22
15670;BME280;18524;45.190;5.732;2023-01-26T02:41:10;99535.88;;;4.67;78.11
15670;BME280;18524;45.190;5.732;2023-01-26T02:46:02;99533.50;;;4.80;77.11
15670;BME280;18524;45.190;5.732;2023-01-26T02:50:52;99533.22;;;4.86;76.67
15670;BME280;18524;45.190;5.732;2023-01-26T02:55:42;99515.25;;;4.81;77.35
15670;BME280;18524;45.190;5.732;2023-01-26T03:00:34;99520.59;;;4.78;77.10
15670;BME280;18524;45.190;5.732;2023-01-26T03:05:31;99515.09;;;4.84;76.00
15670;BME280;18524;45.190;5.732;2023-01-26T03:10:21;99513.34;;;4.85;76.39
15670;BME280;18524;45.190;5.732;2023-01-26T03:15:14;99512.63;;;4.98;75.69
15670;BME280;18524;45.190;5.732;2023-01-26T03:20:23;99509.00;;;4.85;76.26
15670;BME280;18524;45.190;5.732;2023-01-26T03:25:32;99513.78;;;4.93;76.58
15670;BME280;18524;45.190;5.732;2023-01-26T03:30:41;99513.63;;;4.96;76.07
15670;BME280;18524;45.190;5.732;2023-01-26T03:35:31;99498.97;;;4.78;77.61
15670;BME280;18524;45.190;5.732;2023-01-26T03:40:21;99499.75;;;4.62;77.41
15670;BME280;18524;45.190;5.732;2023-01-26T03:45:30;99499.38;;;4.53;78.45
15670;BME280;18524;45.190;5.732;2023-01-26T03:50:39;99493.81;;;4.60;78.32
15670;BME280;18524;45.190;5.732;2023-01-26T03:55:48;99489.53;;;4.59;78.51
15670;BME280;18524;45.190;5.732;2023-01-26T04:00:57;99485.16;;;4.43;79.48
15670;BME280;18524;45.190;5.732;2023-01-26T04:05:48;99477.94;;;4.49;78.58
15670;BME280;18524;45.190;5.732;2023-01-26T04:10:57;99485.31;;;4.57;76.71
15670;BME280;18524;45.190;5.732;2023-01-26T04:15:47;99476.09;;;4.51;76.42
15670;BME280;18524;45.190;5.732;2023-01-26T04:20:56;99473.84;;;4.44;75.23
15670;BME280;18524;45.190;5.732;2023-01-26T04:26:05;99473.19;;;4.23;76.62
15670;BME280;18524;45.190;5.732;2023-01-26T04:30:56;99472.50;;;4.36;75.49
15670;BME280;18524;45.190;5.732;2023-01-26T04:35:46;99466.00;;;4.28;75.21
15670;BME280;18524;45.190;5.732;2023-01-26T04:40:36;99465.41;;;4.23;76.21
15670;BME280;18524;45.190;5.732;2023-01-26T04:45:27;99448.75;;;4.27;76.00
15670;BME280;18524;45.190;5.732;2023-01-26T04:50:17;99447.78;;;4.12;77.01
15670;BME280;18524;45.190;5.732;2023-01-26T04:55:08;99447.69;;;4.31;76.18
15670;BME280;18524;45.190;5.732;2023-01-26T04:59:58;99449.59;;;4.10;77.35
15670;BME280;18524;45.190;5.732;2023-01-26T05:04:49;99444.19;;;4.15;77.10
15670;BME280;18524;45.190;5.732;2023-01-26T05:09:39;99443.25;;;4.16;77.40
15670;BME280;18524;45.190;5.732;2023-01-26T05:14:29;99427.53;;;4.19;76.86
15670;BME280;18524;45.190;5.732;2023-01-26T05:19:20;99431.28;;;4.13;77.55
15670;BME280;18524;45.190;5.732;2023-01-26T05:24:10;99420.25;;;4.43;78.03
15670;BME280;18524;45.190;5.732;2023-01-26T05:29:00;99416.59;;;4.47;76.14
15670;BME280;18524;45.190;5.732;2023-01-26T05:33:51;99416.72;;;4.44;75.80
15670;BME280;18524;45.190;5.732;2023-01-26T05:38:41;99425.19;;;4.64;76.15
15670;BME280;18524;45.190;5.732;2023-01-26T05:43:32;99419.97;;;4.49;75.50
15670;BME280;18524;45.190;5.732;2023-01-26T05:48:22;99415.38;;;4.36;75.81
15670;BME280;18524;45.190;5.732;2023-01-26T05:53:12;99408.91;;;4.28;75.92
15670;BME280;18524;45.190;5.732;2023-01-26T05:58:04;99407.97;;;4.29;76.29
15670;BME280;18524;45.190;5.732;2023-01-26T06:02:54;99407.13;;;4.28;76.00
15670;BME280;18524;45.190;5.732;2023-01-26T06:07:44;99412.09;;;4.50;76.03
15670;BME280;18524;45.190;5.732;2023-01-26T06:12:35;99410.84;;;4.57;74.73
15670;BME280;18524;45.190;5.732;2023-01-26T06:17:27;99408.41;;;4.37;75.62
15670;BME280;18524;45.190;5.732;2023-01-26T06:22:18;99404.94;;;4.21;76.14
15670;BME280;18524;45.190;5.732;2023-01-26T06:27:12;99399.28;;;4.30;75.63
15670;BME280;18524;45.190;5.732;2023-01-26T06:32:03;99401.03;;;4.47;74.81
15670;BME280;18524;45.190;5.732;2023-01-26T06:36:53;99397.03;;;4.39;75.23
15670;BME280;18524;45.190;5.732;2023-01-26T06:41:44;99387.00;;;4.16;76.17
15670;BME280;18524;45.190;5.732;2023-01-26T06:46:34;99396.78;;;4.44;75.48
15670;BME280;18524;45.190;5.732;2023-01-26T06:56:27;99392.34;;;4.63;75.16
15670;BME280;18524;45.190;5.732;2023-01-26T07:01:21;99398.88;;;4.55;75.24
15670;BME280;18524;45.190;5.732;2023-01-26T07:06:13;99386.66;;;4.39;75.58
15670;BME280;18524;45.190;5.732;2023-01-26T07:11:04;99385.28;;;4.50;75.04
15670;BME280;18524;45.190;5.732;2023-01-26T07:16:03;99381.84;;;4.32;75.71
15670;BME280;18524;45.190;5.732;2023-01-26T07:20:54;99382.84;;;4.29;75.79
15670;BME280;18524;45.190;5.732;2023-01-26T07:25:48;99382.13;;;4.43;76.06
15670;BME280;18524;45.190;5.732;2023-01-26T07:30:39;99377.94;;;4.40;74.82
15670;BME280;18524;45.190;5.732;2023-01-26T07:35:29;99373.13;;;4.50;74.38
15670;BME280;18524;45.190;5.732;2023-01-26T07:40:20;99374.25;;;4.62;73.27
15670;BME280;18524;45.190;5.732;2023-01-26T07:45:10;99370.75;;;4.46;73.67
15670;BME280;18524;45.190;5.732;2023-01-26T07:50:00;99373.84;;;4.36;74.36
15670;BME280;18524;45.190;5.732;2023-01-26T07:54:51;99371.00;;;4.41;73.10
15670;BME280;18524;45.190;5.732;2023-01-26T07:59:41;99359.09;;;4.37;73.36
15670;BME280;18524;45.190;5.732;2023-01-26T08:04:32;99362.69;;;4.34;72.82
15670;BME280;18524;45.190;5.732;2023-01-26T08:09:29;99359.09;;;4.37;72.58
15670;BME280;18524;45.190;5.732;2023-01-26T08:14:27;99363.53;;;4.35;73.02
15670;BME280;18524;45.190;5.732;2023-01-26T08:19:25;99366.88;;;4.37;72.20
15670;BME280;18524;45.190;5.732;2023-01-26T08:24:15;99362.78;;;4.33;71.96
15670;BME280;18524;45.190;5.732;2023-01-26T08:29:05;99363.03;;;4.44;72.32
15670;BME280;18524;45.190;5.732;2023-01-26T08:33:56;99368.16;;;4.13;74.43
15670;BME280;18524;45.190;5.732;2023-01-26T08:38:46;99358.91;;;4.24;73.89
15670;BME280;18524;45.190;5.732;2023-01-26T08:43:37;99353.63;;;4.26;73.14
15670;BME280;18524;45.190;5.732;2023-01-26T08:48:30;99358.63;;;4.13;73.90
15670;BME280;18524;45.190;5.732;2023-01-26T08:53:22;99354.97;;;4.33;71.86
15670;BME280;18524;45.190;5.732;2023-01-26T08:58:12;99365.81;;;4.41;71.67
15670;BME280;18524;45.190;5.732;2023-01-26T09:03:04;99362.25;;;4.26;72.09
15670;BME280;18524;45.190;5.732;2023-01-26T09:07:54;99366.00;;;4.21;72.94
15670;BME280;18524;45.190;5.732;2023-01-26T09:12:44;99362.25;;;4.26;72.04
15670;BME280;18524;45.190;5.732;2023-01-26T09:17:35;99362.25;;;4.26;72.23
15670;BME280;18524;45.190;5.732;2023-01-26T09:22:26;99359.66;;;4.26;72.21
15670;BME280;18524;45.190;5.732;2023-01-26T09:27:20;99365.19;;;4.36;71.77
15670;BME280;18524;45.190;5.732;2023-01-26T09:32:10;99359.09;;;4.37;71.94
15670;BME280;18524;45.190;5.732;2023-01-26T09:37:00;99362.44;;;4.39;71.09
15670;BME280;18524;45.190;5.732;2023-01-26T09:42:02;99359.16;;;4.53;71.02
15670;BME280;18524;45.190;5.732;2023-01-26T09:51:57;99363.03;;;4.44;69.99
15670;BME280;18524;45.190;5.732;2023-01-26T09:56:49;99373.91;;;4.35;70.00
15670;BME280;18524;45.190;5.732;2023-01-26T10:01:44;99374.38;;;4.26;70.39
15670;BME280;18524;45.190;5.732;2023-01-26T10:06:39;99363.84;;;4.29;69.38
15670;BME280;18524;45.190;5.732;2023-01-26T10:11:37;99366.81;;;4.38;69.49
15670;BME280;18524;45.190;5.732;2023-01-26T10:16:32;99375.25;;;4.42;68.75
15670;BME280;18524;45.190;5.732;2023-01-26T10:21:29;99373.84;;;4.36;68.67
15670;BME280;18524;45.190;5.732;2023-01-26T10:26:22;99371.84;;;4.42;68.90
15670;BME280;18524;45.190;5.732;2023-01-26T10:31:18;99364.81;;;4.44;69.20
15670;BME280;18524;45.190;5.732;2023-01-26T10:36:10;99364.44;;;4.51;68.64
15670;BME280;18524;45.190;5.732;2023-01-26T10:46:03;99355.56;;;4.38;68.33
15670;BME280;18524;45.190;5.732;2023-01-26T10:50:54;99354.50;;;4.42;67.86
15670;BME280;18524;45.190;5.732;2023-01-26T10:56:05;99349.75;;;4.50;68.47
15670;BME280;18524;45.190;5.732;2023-01-26T11:01:00;99351.13;;;4.57;67.59
15670;BME280;18524;45.190;5.732;2023-01-26T11:06:15;99345.56;;;4.48;67.22
15670;BME280;18524;45.190;5.732;2023-01-26T11:11:28;99350.44;;;4.54;66.49
15670;BME280;18524;45.190;5.732;2023-01-26T11:16:21;99348.38;;;4.76;65.02
15670;BME280;18524;45.190;5.732;2023-01-26T11:21:20;99337.81;;;4.63;65.28
15670;BME280;18524;45.190;5.732;2023-01-26T11:26:57;99337.63;;;4.82;65.19
15670;BME280;18524;45.190;5.732;2023-01-26T11:52:33;99311.47;;;5.32;62.42
15670;BME280;18524;45.190;5.732;2023-01-26T11:57:40;99314.56;;;5.39;62.39
15670;BME280;18524;45.190;5.732;2023-01-26T12:02:35;99305.97;;;5.53;62.94
15670;BME280;18524;45.190;5.732;2023-01-26T12:07:29;99296.41;;;5.53;63.25
15670;BME280;18524;45.190;5.732;2023-01-26T12:12:33;99291.88;;;5.57;62.30
15670;BME280;18524;45.190;5.732;2023-01-26T12:22:28;99289.00;;;5.31;62.11
15670;BME280;18524;45.190;5.732;2023-01-26T12:27:40;99287.59;;;5.26;62.42
15670;BME280;18524;45.190;5.732;2023-01-26T12:32:32;99276.19;;;5.28;62.33
15670;BME280;18524;45.190;5.732;2023-01-26T12:52:47;99255.78;;;5.37;62.47
15670;BME280;18524;45.190;5.732;2023-01-26T12:57:52;99248.91;;;5.20;62.42
15670;BME280;18524;45.190;5.732;2023-01-26T13:02:46;99245.28;;;5.38;64.60
15670;BME280;18524;45.190;5.732;2023-01-26T13:07:38;99239.28;;;5.52;64.07
15670;BME280;18524;45.190;5.732;2023-01-26T13:18:08;99232.34;;;5.67;64.76
15670;BME280;18524;45.190;5.732;2023-01-26T13:23:01;99236.53;;;5.69;64.87
15670;BME280;18524;45.190;5.732;2023-01-26T13:38:01;99227.28;;;5.49;65.50
15670;BME280;18524;45.190;5.732;2023-01-26T13:42:59;99234.06;;;5.52;66.32
15670;BME280;18524;45.190;5.732;2023-01-26T13:47:52;99228.97;;;5.50;66.58
15670;BME280;18524;45.190;5.732;2023-01-26T13:52:45;99229.44;;;5.57;66.07
15670;BME280;18524;45.190;5.732;2023-01-26T13:57:35;99229.28;;;5.60;66.85
15670;BME280;18524;45.190;5.732;2023-01-26T14:02:32;99222.00;;;5.51;65.05
15670;BME280;18524;45.190;5.732;2023-01-26T14:07:27;99223.66;;;5.52;65.13
15670;BME280;18524;45.190;5.732;2023-01-26T14:12:42;99219.94;;;5.42;66.57
15670;BME280;18524;45.190;5.732;2023-01-26T14:17:35;99207.22;;;5.51;67.16
15670;BME280;18524;45.190;5.732;2023-01-26T14:22:27;99212.84;;;5.59;66.50
15670;BME280;18524;45.190;5.732;2023-01-26T14:27:39;99214.25;;;5.65;65.38
15670;BME280;18524;45.190;5.732;2023-01-26T14:32:30;99213.53;;;5.47;63.45
15670;BME280;18524;45.190;5.732;2023-01-26T14:37:22;99217.81;;;5.48;62.42
15670;BME280;18524;45.190;5.732;2023-01-26T14:42:16;99216.13;;;5.33;63.48
15670;BME280;18524;45.190;5.732;2023-01-26T14:47:24;99211.94;;;5.45;64.47
15670;BME280;18524;45.190;5.732;2023-01-26T14:52:23;99212.22;;;5.40;64.58
15670;BME280;18524;45.190;5.732;2023-01-26T14:57:18;99213.34;;;5.36;65.65
15670;BME280;18524;45.190;5.732;2023-01-26T15:07:35;99204.91;;;5.47;66.04
15670;BME280;18524;45.190;5.732;2023-01-26T15:12:26;99211.16;;;5.58;66.08
15670;BME280;18524;45.190;5.732;2023-01-26T15:22:22;99203.81;;;5.65;64.76
15670;BME280;18524;45.190;5.732;2023-01-26T15:27:13;99204.94;;;5.61;64.23
15670;BME280;18524;45.190;5.732;2023-01-26T15:32:04;99209.00;;;5.51;64.83
15670;BME280;18524;45.190;5.732;2023-01-26T15:36:54;99211.22;;;5.43;63.93
15670;BME280;18524;45.190;5.732;2023-01-26T15:42:13;99209.25;;;5.32;63.23
15670;BME280;18524;45.190;5.732;2023-01-26T15:47:07;99207.69;;;5.44;62.96
15670;BME280;18524;45.190;5.732;2023-01-26T15:51:58;99205.56;;;5.50;63.69
15670;BME280;18524;45.190;5.732;2023-01-26T15:56:48;99204.06;;;5.46;65.15
15670;BME280;18524;45.190;5.732;2023-01-26T16:01:38;99210.56;;;5.39;64.12
15670;BME280;18524;45.190;5.732;2023-01-26T16:06:31;99209.34;;;5.45;65.14
15670;BME280;18524;45.190;5.732;2023-01-26T16:11:25;99210.47;;;5.41;62.32
15670;BME280;18524;45.190;5.732;2023-01-26T16:16:17;99215.38;;;5.31;62.26
15670;BME280;18524;45.190;5.732;2023-01-26T16:21:20;99212.28;;;5.24;62.42
15670;BME280;18524;45.190;5.732;2023-01-26T16:26:13;99215.81;;;5.23;63.22
15670;BME280;18524;45.190;5.732;2023-01-26T16:31:28;99213.31;;;5.22;64.08
15670;BME280;18524;45.190;5.732;2023-01-26T16:36:19;99219.47;;;5.19;64.08
15670;BME280;18524;45.190;5.732;2023-01-26T16:41:36;99221.69;;;5.27;64.20
15670;BME280;18524;45.190;5.732;2023-01-26T16:46:28;99219.56;;;5.33;64.09
15670;BME280;18524;45.190;5.732;2023-01-26T16:56:14;99211.75;;;5.33;61.62
15670;BME280;18524;45.190;5.732;2023-01-26T17:01:18;99214.53;;;5.30;62.76
15670;BME280;18524;45.190;5.732;2023-01-26T17:06:09;99215.41;;;5.15;63.24
15670;BME280;18524;45.190;5.732;2023-01-26T17:11:01;99219.66;;;5.16;63.39
15670;BME280;18524;45.190;5.732;2023-01-26T17:15:51;99229.31;;;5.14;63.75
15670;BME280;18524;45.190;5.732;2023-01-26T17:21:05;99222.88;;;5.21;62.66
15670;BME280;18524;45.190;5.732;2023-01-26T17:25:57;99223.53;;;5.09;62.97
15670;BME280;18524;45.190;5.732;2023-01-26T17:30:48;99223.19;;;5.15;63.39
15670;BME280;18524;45.190;5.732;2023-01-26T17:35:39;99225.69;;;5.17;64.23
15670;BME280;18524;45.190;5.732;2023-01-26T17:40:29;99216.00;;;5.20;63.06
15670;BME280;18524;45.190;5.732;2023-01-26T17:45:19;99219.47;;;5.19;63.01
15670;BME280;18524;45.190;5.732;2023-01-26T17:50:29;99223.94;;;5.17;63.13
15670;BME280;18524;45.190;5.732;2023-01-26T17:55:28;99217.25;;;5.13;64.10
15670;BME280;18524;45.190;5.732;2023-01-26T18:00:21;99222.09;;;5.19;64.19
15670;BME280;18524;45.190;5.732;2023-01-26T18:05:11;99225.75;;;5.31;63.73
15670;BME280;18524;45.190;5.732;2023-01-26T18:10:02;99225.84;;;5.29;64.48
15670;BME280;18524;45.190;5.732;2023-01-26T18:14:53;99232.16;;;5.25;64.13
15670;BME280;18524;45.190;5.732;2023-01-26T18:19:43;99226.88;;;5.27;63.36
15670;BME280;18524;45.190;5.732;2023-01-26T18:24:50;99228.38;;;5.31;62.58
15670;BME280;18524;45.190;5.732;2023-01-26T18:29:41;99218.91;;;5.30;64.37
15670;BME280;18524;45.190;5.732;2023-01-26T18:34:35;99214.72;;;5.27;63.48
15670;BME280;18524;45.190;5.732;2023-01-26T18:39:35;99219.91;;;5.27;63.40
15670;BME280;18524;45.190;5.732;2023-01-26T18:44:26;99213.78;;;5.28;63.85
15670;BME280;18524;45.190;5.732;2023-01-26T18:54:36;99210.25;;;5.29;62.17
15670;BME280;18524;45.190;5.732;2023-01-26T18:59:26;99211.53;;;5.22;62.88
15670;BME280;18524;45.190;5.732;2023-01-26T19:04:17;99203.56;;;5.25;63.69
15670;BME280;18524;45.190;5.732;2023-01-26T19:09:07;99209.50;;;5.27;63.72
15670;BME280;18524;45.190;5.732;2023-01-26T19:13:59;99211.38;;;5.25;63.15
15670;BME280;18524;45.190;5.732;2023-01-26T19:18:50;99202.06;;;5.21;63.97
15670;BME280;18524;45.190;5.732;2023-01-26T19:23:41;99197.72;;;5.22;64.66
15670;BME280;18524;45.190;5.732;2023-01-26T19:28:31;99204.91;;;5.17;63.76
15670;BME280;18524;45.190;5.732;2023-01-26T19:33:22;99205.25;;;5.26;63.59
15670;BME280;18524;45.190;5.732;2023-01-26T19:38:17;99207.31;;;5.20;63.38
15670;BME280;18524;45.190;5.732;2023-01-26T19:43:07;99197.19;;;5.15;63.77
15670;BME280;18524;45.190;5.732;2023-01-26T19:47:58;99202.72;;;5.25;63.79
15670;BME280;18524;45.190;5.732;2023-01-26T19:52:48;99204.91;;;5.17;65.53
15670;BME280;18524;45.190;5.732;2023-01-26T19:57:39;99199.97;;;5.12;67.47
15670;BME280;18524;45.190;5.732;2023-01-26T20:02:29;99195.41;;;5.01;69.24
15670;BME280;18524;45.190;5.732;2023-01-26T20:07:20;99202.22;;;4.88;70.47
15670;BME280;18524;45.190;5.732;2023-01-26T20:12:11;99197.78;;;4.90;71.06
15670;BME280;18524;45.190;5.732;2023-01-26T20:17:02;99193.25;;;4.94;70.70
15670;BME280;18524;45.190;5.732;2023-01-26T20:21:53;99200.09;;;4.95;71.53
15670;BME280;18524;45.190;5.732;2023-01-26T20:26:43;99189.97;;;4.90;70.95
15670;BME280;18524;45.190;5.732;2023-01-26T20:31:34;99197.81;;;5.05;70.00
15670;BME280;18524;45.190;5.732;2023-01-26T20:36:26;99201.78;;;4.80;71.66
15670;BME280;18524;45.190;5.732;2023-01-26T20:41:19;99189.72;;;4.79;71.63
15670;BME280;18524;45.190;5.732;2023-01-26T20:46:12;99194.09;;;4.79;73.03
15670;BME280;18524;45.190;5.732;2023-01-26T20:56:03;99193.50;;;4.74;71.96
15670;BME280;18524;45.190;5.732;2023-01-26T21:01:08;99193.03;;;4.67;73.23
15670;BME280;18524;45.190;5.732;2023-01-26T21:06:00;99193.69;;;4.70;74.42
15670;BME280;18524;45.190;5.732;2023-01-26T21:10:50;99179.16;;;4.82;74.08
15670;BME280;18524;45.190;5.732;2023-01-26T21:15:42;99181.19;;;4.77;74.54
15670;BME280;18524;45.190;5.732;2023-01-26T21:20:32;99185.31;;;4.65;75.23
15670;BME280;18524;45.190;5.732;2023-01-26T21:31:09;99164.47;;;4.51;74.48
15670;BME280;18524;45.190;5.732;2023-01-26T21:36:07;99165.63;;;4.61;74.63
15670;BME280;18524;45.190;5.732;2023-01-26T21:41:03;99177.13;;;4.57;75.31
15670;BME280;18524;45.190;5.732;2023-01-26T21:46:24;99170.34;;;4.55;74.64
15670;BME280;18524;45.190;5.732;2023-01-26T21:51:24;99177.88;;;4.59;75.27
15670;BME280;18524;45.190;5.732;2023-01-26T21:56:33;99166.72;;;4.57;75.29
15670;BME280;18524;45.190;5.732;2023-01-26T22:01:24;99166.31;;;4.49;76.38
15670;BME280;18524;45.190;5.732;2023-01-26T22:06:14;99171.75;;;4.45;75.33
15670;BME280;18524;45.190;5.732;2023-01-26T22:11:05;99181.06;;;4.49;75.17
15670;BME280;18524;45.190;5.732;2023-01-26T22:16:01;99173.38;;;4.47;76.03
15670;BME280;18524;45.190;5.732;2023-01-26T22:20:55;99171.81;;;4.43;76.64
15670;BME280;18524;45.190;5.732;2023-01-26T22:25:45;99171.75;;;4.45;76.08
15670;BME280;18524;45.190;5.732;2023-01-26T22:30:36;99176.69;;;4.33;76.55
15670;BME280;18524;45.190;5.732;2023-01-26T22:35:27;99174.59;;;4.40;76.14
15670;BME280;18524;45.190;5.732;2023-01-26T22:40:18;99180.38;;;4.29;76.07
15670;BME280;18524;45.190;5.732;2023-01-26T22:45:09;99170.84;;;4.30;76.09
15670;BME280;18524;45.190;5.732;2023-01-26T22:49:59;99169.16;;;4.29;76.21
15670;BME280;18524;45.190;5.732;2023-01-26T22:54:50;99157.28;;;4.25;75.42
15670;BME280;18524;45.190;5.732;2023-01-26T22:59:40;99162.63;;;4.22;75.52
15670;BME280;18524;45.190;5.732;2023-01-26T23:04:30;99152.59;;;4.16;75.92
15670;BME280;18524;45.190;5.732;2023-01-26T23:09:21;99150.66;;;4.19;75.70
15670;BME280;18524;45.190;5.732;2023-01-26T23:14:11;99147.06;;;4.22;75.38
15670;BME280;18524;45.190;5.732;2023-01-26T23:19:02;99146.13;;;4.23;75.18
15670;BME280;18524;45.190;5.732;2023-01-26T23:23:52;99143.63;;;4.21;75.34
15670;BME280;18524;45.190;5.732;2023-01-26T23:28:43;99152.41;;;4.19;76.30
15670;BME280;18524;45.190;5.732;2023-01-26T23:33:34;99149.41;;;4.26;75.77
15670;BME280;18524;45.190;5.732;2023-01-26T23:38:26;99144.13;;;4.28;75.43
15670;BME280;18524;45.190;5.732;2023-01-26T23:43:17;99138.84;;;4.14;75.95
15670;BME280;18524;45.190;5.732;2023-01-26T23:48:08;99136.94;;;4.17;75.82
15670;BME280;18524;45.190;5.732;2023-01-26T23:52:59;99139.59;;;4.00;76.94
15670;BME280;18524;45.190;5.732;2023-01-26T23:57:49;99125.84;;;3.98;77.54
